sensor_id;sensor_type;location;lat;lon;timestamp;P1;durP1;ratioP1;P2;durP2;ratioP2
22571;SDS011;11452;53.368;14.658;2022-10-16T00:03:55;4.13;;;3.50;;
22571;SDS011;11452;53.368;14.658;2022-10-16T00:09:02;4.23;;;3.70;;
22571;SDS011;11452;53.368;14.658;2022-10-16T00:14:10;4.03;;;3.73;;
22571;SDS011;11452;53.368;14.658;2022-10-16T00:19:17;4.33;;;3.93;;
22571;SDS011;11452;53.368;14.658;2022-10-16T00:24:23;4.00;;;3.70;;
22571;SDS011;11452;53.368;14.658;2022-10-16T00:29:28;5.27;;;4.20;;
22571;SDS011;11452;53.368;14.658;2022-10-16T00:34:34;4.00;;;3.70;;
22571;SDS011;11452;53.368;14.658;2022-10-16T00:39:40;3.90;;;3.60;;
22571;SDS011;11452;53.368;14.658;2022-10-16T00:44:53;4.37;;;3.97;;
22571;SDS011;11452;53.368;14.658;2022-10-16T00:50:11;3.40;;;3.10;;
22571;SDS011;11452;53.368;14.658;2022-10-16T00:55:25;3.87;;;3.47;;
22571;SDS011;11452;53.368;14.658;2022-10-16T01:00:33;3.40;;;3.10;;
22571;SDS011;11452;53.368;14.658;2022-10-16T01:05:39;3.50;;;3.20;;
22571;SDS011;11452;53.368;14.658;2022-10-16T01:16:05;5.03;;;3.97;;
22571;SDS011;11452;53.368;14.658;2022-10-16T01:21:16;3.87;;;3.47;;
22571;SDS011;11452;53.368;14.658;2022-10-16T01:31:58;3.33;;;3.00;;
22571;SDS011;11452;53.368;14.658;2022-10-16T01:37:09;3.40;;;3.13;;
22571;SDS011;11452;53.368;14.658;2022-10-16T01:42:25;4.33;;;3.20;;
22571;SDS011;11452;53.368;14.658;2022-10-16T01:47:27;2.80;;;2.60;;
22571;SDS011;11452;53.368;14.658;2022-10-16T01:52:37;3.23;;;2.93;;
22571;SDS011;11452;53.368;14.658;2022-10-16T01:57:45;3.33;;;3.03;;
22571;SDS011;11452;53.368;14.658;2022-10-16T02:02:53;3.90;;;3.17;;
22571;SDS011;11452;53.368;14.658;2022-10-16T02:07:59;3.60;;;3.30;;
22571;SDS011;11452;53.368;14.658;2022-10-16T02:18:16;3.30;;;3.00;;
22571;SDS011;11452;53.368;14.658;2022-10-16T02:23:24;3.40;;;3.07;;
22571;SDS011;11452;53.368;14.658;2022-10-16T02:28:33;4.50;;;3.40;;
22571;SDS011;11452;53.368;14.658;2022-10-16T02:33:44;5.30;;;3.20;;
22571;SDS011;11452;53.368;14.658;2022-10-16T02:38:51;5.50;;;3.60;;
22571;SDS011;11452;53.368;14.658;2022-10-16T02:43:58;3.13;;;2.93;;
22571;SDS011;11452;53.368;14.658;2022-10-16T02:49:03;2.97;;;2.77;;
22571;SDS011;11452;53.368;14.658;2022-10-16T02:54:09;3.67;;;3.37;;
22571;SDS011;11452;53.368;14.658;2022-10-16T02:59:15;3.00;;;2.70;;
22571;SDS011;11452;53.368;14.658;2022-10-16T03:04:21;2.83;;;2.63;;
22571;SDS011;11452;53.368;14.658;2022-10-16T03:09:26;3.13;;;2.50;;
22571;SDS011;11452;53.368;14.658;2022-10-16T03:14:32;3.13;;;2.80;;
22571;SDS011;11452;53.368;14.658;2022-10-16T03:19:38;5.73;;;2.70;;
22571;SDS011;11452;53.368;14.658;2022-10-16T03:24:43;5.33;;;3.10;;
22571;SDS011;11452;53.368;14.658;2022-10-16T03:29:49;3.63;;;3.33;;
22571;SDS011;11452;53.368;14.658;2022-10-16T03:34:54;2.60;;;2.40;;
22571;SDS011;11452;53.368;14.658;2022-10-16T03:40:00;3.33;;;2.60;;
22571;SDS011;11452;53.368;14.658;2022-10-16T03:45:07;3.30;;;3.00;;
22571;SDS011;11452;53.368;14.658;2022-10-16T03:50:13;3.00;;;2.77;;
22571;SDS011;11452;53.368;14.658;2022-10-16T03:55:18;2.80;;;2.60;;
22571;SDS011;11452;53.368;14.658;2022-10-16T04:00:24;2.70;;;2.40;;
22571;SDS011;11452;53.368;14.658;2022-10-16T04:05:29;3.53;;;3.33;;
22571;SDS011;11452;53.368;14.658;2022-10-16T04:10:35;2.47;;;2.27;;
22571;SDS011;11452;53.368;14.658;2022-10-16T04:15:41;3.20;;;2.90;;
22571;SDS011;11452;53.368;14.658;2022-10-16T04:20:46;3.23;;;3.03;;
22571;SDS011;11452;53.368;14.658;2022-10-16T04:25:52;3.20;;;2.80;;
22571;SDS011;11452;53.368;14.658;2022-10-16T04:30:58;3.00;;;2.80;;
22571;SDS011;11452;53.368;14.658;2022-10-16T04:36:04;3.07;;;2.80;;
22571;SDS011;11452;53.368;14.658;2022-10-16T04:41:10;2.67;;;2.47;;
22571;SDS011;11452;53.368;14.658;2022-10-16T04:46:15;3.07;;;2.87;;
22571;SDS011;11452;53.368;14.658;2022-10-16T04:51:20;3.63;;;2.80;;
22571;SDS011;11452;53.368;14.658;2022-10-16T04:56:26;3.13;;;2.83;;
22571;SDS011;11452;53.368;14.658;2022-10-16T05:01:31;2.70;;;2.50;;
22571;SDS011;11452;53.368;14.658;2022-10-16T05:06:37;4.80;;;2.87;;
22571;SDS011;11452;53.368;14.658;2022-10-16T05:11:43;2.73;;;2.53;;
22571;SDS011;11452;53.368;14.658;2022-10-16T05:16:49;2.93;;;2.50;;
22571;SDS011;11452;53.368;14.658;2022-10-16T05:21:55;2.93;;;2.60;;
22571;SDS011;11452;53.368;14.658;2022-10-16T05:27:00;2.70;;;2.50;;
22571;SDS011;11452;53.368;14.658;2022-10-16T05:32:06;2.60;;;2.40;;
22571;SDS011;11452;53.368;14.658;2022-10-16T05:37:12;3.60;;;2.57;;
22571;SDS011;11452;53.368;14.658;2022-10-16T05:42:18;2.50;;;2.30;;
22571;SDS011;11452;53.368;14.658;2022-10-16T05:47:23;2.80;;;2.60;;
22571;SDS011;11452;53.368;14.658;2022-10-16T05:52:29;2.60;;;2.40;;
22571;SDS011;11452;53.368;14.658;2022-10-16T05:57:35;3.67;;;2.50;;
22571;SDS011;11452;53.368;14.658;2022-10-16T06:02:41;2.70;;;2.50;;
22571;SDS011;11452;53.368;14.658;2022-10-16T06:07:46;2.63;;;2.43;;
22571;SDS011;11452;53.368;14.658;2022-10-16T06:12:52;2.43;;;2.27;;
22571;SDS011;11452;53.368;14.658;2022-10-16T06:17:57;2.57;;;2.17;;
22571;SDS011;11452;53.368;14.658;2022-10-16T06:23:03;3.30;;;2.30;;
22571;SDS011;11452;53.368;14.658;2022-10-16T06:28:09;2.20;;;2.10;;
22571;SDS011;11452;53.368;14.658;2022-10-16T06:33:14;2.53;;;2.33;;
22571;SDS011;11452;53.368;14.658;2022-10-16T06:38:20;2.77;;;2.20;;
22571;SDS011;11452;53.368;14.658;2022-10-16T06:43:26;2.30;;;2.20;;
22571;SDS011;11452;53.368;14.658;2022-10-16T06:48:35;2.80;;;2.43;;
22571;SDS011;11452;53.368;14.658;2022-10-16T06:53:44;2.90;;;2.00;;
22571;SDS011;11452;53.368;14.658;2022-10-16T06:58:51;2.50;;;2.30;;
22571;SDS011;11452;53.368;14.658;2022-10-16T07:03:59;4.57;;;2.30;;
22571;SDS011;11452;53.368;14.658;2022-10-16T07:09:06;2.33;;;2.13;;
22571;SDS011;11452;53.368;14.658;2022-10-16T07:14:19;2.57;;;2.37;;
22571;SDS011;11452;53.368;14.658;2022-10-16T07:19:22;2.43;;;2.23;;
22571;SDS011;11452;53.368;14.658;2022-10-16T07:24:30;3.47;;;2.20;;
22571;SDS011;11452;53.368;14.658;2022-10-16T07:29:36;2.40;;;2.00;;
22571;SDS011;11452;53.368;14.658;2022-10-16T07:34:42;2.80;;;2.07;;
22571;SDS011;11452;53.368;14.658;2022-10-16T07:39:49;2.47;;;1.93;;
22571;SDS011;11452;53.368;14.658;2022-10-16T07:44:55;2.23;;;1.83;;
22571;SDS011;11452;53.368;14.658;2022-10-16T07:50:01;3.90;;;1.90;;
22571;SDS011;11452;53.368;14.658;2022-10-16T07:55:07;1.87;;;1.50;;
22571;SDS011;11452;53.368;14.658;2022-10-16T08:00:15;2.27;;;1.73;;
22571;SDS011;11452;53.368;14.658;2022-10-16T08:05:20;2.73;;;1.63;;
22571;SDS011;11452;53.368;14.658;2022-10-16T08:10:26;1.70;;;1.40;;
22571;SDS011;11452;53.368;14.658;2022-10-16T08:15:33;3.53;;;1.53;;
22571;SDS011;11452;53.368;14.658;2022-10-16T08:20:39;1.47;;;1.23;;
22571;SDS011;11452;53.368;14.658;2022-10-16T08:25:45;5.13;;;1.90;;
22571;SDS011;11452;53.368;14.658;2022-10-16T08:30:51;2.37;;;1.50;;
22571;SDS011;11452;53.368;14.658;2022-10-16T08:35:56;3.93;;;1.57;;
22571;SDS011;11452;53.368;14.658;2022-10-16T08:41:22;1.57;;;1.13;;
22571;SDS011;11452;53.368;14.658;2022-10-16T08:51:40;1.30;;;1.20;;
22571;SDS011;11452;53.368;14.658;2022-10-16T08:56:47;2.00;;;1.43;;
22571;SDS011;11452;53.368;14.658;2022-10-16T09:01:52;2.53;;;2.07;;
22571;SDS011;11452;53.368;14.658;2022-10-16T09:07:08;4.97;;;1.60;;
22571;SDS011;11452;53.368;14.658;2022-10-16T09:17:45;1.53;;;1.10;;
22571;SDS011;11452;53.368;14.658;2022-10-16T09:22:51;2.77;;;1.37;;
22571;SDS011;11452;53.368;14.658;2022-10-16T09:27:57;7.27;;;1.63;;
22571;SDS011;11452;53.368;14.658;2022-10-16T09:33:03;1.30;;;1.10;;
22571;SDS011;11452;53.368;14.658;2022-10-16T09:38:20;2.70;;;1.53;;
22571;SDS011;11452;53.368;14.658;2022-10-16T09:43:46;1.37;;;1.27;;
22571;SDS011;11452;53.368;14.658;2022-10-16T09:48:48;3.23;;;1.43;;
22571;SDS011;11452;53.368;14.658;2022-10-16T09:53:59;1.50;;;1.17;;
22571;SDS011;11452;53.368;14.658;2022-10-16T09:59:08;2.07;;;1.07;;
22571;SDS011;11452;53.368;14.658;2022-10-16T10:04:14;1.93;;;1.30;;
22571;SDS011;11452;53.368;14.658;2022-10-16T10:09:31;2.80;;;1.10;;
22571;SDS011;11452;53.368;14.658;2022-10-16T10:14:42;1.23;;;1.13;;
22571;SDS011;11452;53.368;14.658;2022-10-16T10:19:53;2.80;;;1.13;;
22571;SDS011;11452;53.368;14.658;2022-10-16T10:46:35;3.07;;;1.20;;
22571;SDS011;11452;53.368;14.658;2022-10-16T10:51:47;2.73;;;1.10;;
22571;SDS011;11452;53.368;14.658;2022-10-16T10:57:29;1.83;;;1.13;;
22571;SDS011;11452;53.368;14.658;2022-10-16T11:02:44;2.33;;;1.20;;
22571;SDS011;11452;53.368;14.658;2022-10-16T11:13:00;2.10;;;1.20;;
22571;SDS011;11452;53.368;14.658;2022-10-16T11:23:26;1.23;;;1.17;;
22571;SDS011;11452;53.368;14.658;2022-10-16T11:28:34;2.63;;;1.63;;
22571;SDS011;11452;53.368;14.658;2022-10-16T11:44:34;3.13;;;1.50;;
22571;SDS011;11452;53.368;14.658;2022-10-16T11:49:40;1.97;;;1.80;;
22571;SDS011;11452;53.368;14.658;2022-10-16T11:55:06;1.80;;;1.70;;
22571;SDS011;11452;53.368;14.658;2022-10-16T12:00:28;3.50;;;1.87;;
22571;SDS011;11452;53.368;14.658;2022-10-16T12:05:58;2.20;;;1.57;;
22571;SDS011;11452;53.368;14.658;2022-10-16T12:16:34;1.70;;;1.60;;
22571;SDS011;11452;53.368;14.658;2022-10-16T12:21:45;2.57;;;2.00;;
22571;SDS011;11452;53.368;14.658;2022-10-16T12:26:51;1.50;;;1.40;;
22571;SDS011;11452;53.368;14.658;2022-10-16T12:31:58;1.67;;;1.57;;
22571;SDS011;11452;53.368;14.658;2022-10-16T12:37:20;1.77;;;1.50;;
22571;SDS011;11452;53.368;14.658;2022-10-16T12:42:32;1.63;;;1.53;;
22571;SDS011;11452;53.368;14.658;2022-10-16T12:47:47;1.97;;;1.70;;
22571;SDS011;11452;53.368;14.658;2022-10-16T12:52:53;2.30;;;2.10;;
22571;SDS011;11452;53.368;14.658;2022-10-16T12:58:08;3.83;;;2.20;;
22571;SDS011;11452;53.368;14.658;2022-10-16T13:19:42;1.67;;;1.30;;
22571;SDS011;11452;53.368;14.658;2022-10-16T13:24:49;1.20;;;1.10;;
22571;SDS011;11452;53.368;14.658;2022-10-16T13:30:16;2.47;;;1.10;;
22571;SDS011;11452;53.368;14.658;2022-10-16T13:35:27;1.17;;;1.13;;
22571;SDS011;11452;53.368;14.658;2022-10-16T13:40:34;1.30;;;1.20;;
22571;SDS011;11452;53.368;14.658;2022-10-16T13:45:40;1.90;;;1.23;;
22571;SDS011;11452;53.368;14.658;2022-10-16T13:50:45;1.00;;;0.97;;
22571;SDS011;11452;53.368;14.658;2022-10-16T13:55:52;2.20;;;1.10;;
22571;SDS011;11452;53.368;14.658;2022-10-16T14:00:59;2.40;;;1.30;;
22571;SDS011;11452;53.368;14.658;2022-10-16T14:06:06;1.83;;;1.20;;
22571;SDS011;11452;53.368;14.658;2022-10-16T14:11:21;1.73;;;1.00;;
22571;SDS011;11452;53.368;14.658;2022-10-16T14:16:30;0.90;;;0.90;;
22571;SDS011;11452;53.368;14.658;2022-10-16T14:21:37;1.10;;;1.00;;
22571;SDS011;11452;53.368;14.658;2022-10-16T14:26:44;1.53;;;1.00;;
22571;SDS011;11452;53.368;14.658;2022-10-16T14:31:56;0.80;;;0.80;;
22571;SDS011;11452;53.368;14.658;2022-10-16T14:42:30;0.77;;;0.77;;
22571;SDS011;11452;53.368;14.658;2022-10-16T14:47:36;1.20;;;1.00;;
22571;SDS011;11452;53.368;14.658;2022-10-16T14:52:44;2.07;;;0.83;;
22571;SDS011;11452;53.368;14.658;2022-10-16T14:57:49;0.90;;;0.90;;
22571;SDS011;11452;53.368;14.658;2022-10-16T15:02:57;0.90;;;0.90;;
22571;SDS011;11452;53.368;14.658;2022-10-16T15:08:02;1.97;;;1.23;;
22571;SDS011;11452;53.368;14.658;2022-10-16T15:13:12;1.40;;;0.80;;
22571;SDS011;11452;53.368;14.658;2022-10-16T15:18:19;1.83;;;0.90;;
22571;SDS011;11452;53.368;14.658;2022-10-16T15:23:25;0.83;;;0.83;;
22571;SDS011;11452;53.368;14.658;2022-10-16T15:28:31;1.07;;;1.00;;
22571;SDS011;11452;53.368;14.658;2022-10-16T15:33:36;1.07;;;0.97;;
22571;SDS011;11452;53.368;14.658;2022-10-16T15:38:43;5.17;;;1.27;;
22571;SDS011;11452;53.368;14.658;2022-10-16T15:43:49;1.83;;;1.27;;
22571;SDS011;11452;53.368;14.658;2022-10-16T15:48:57;1.37;;;1.23;;
22571;SDS011;11452;53.368;14.658;2022-10-16T15:54:02;1.40;;;1.30;;
22571;SDS011;11452;53.368;14.658;2022-10-16T15:59:08;3.73;;;1.53;;
22571;SDS011;11452;53.368;14.658;2022-10-16T16:04:14;2.93;;;1.23;;
22571;SDS011;11452;53.368;14.658;2022-10-16T16:09:21;1.20;;;1.10;;
22571;SDS011;11452;53.368;14.658;2022-10-16T16:14:27;1.70;;;1.00;;
22571;SDS011;11452;53.368;14.658;2022-10-16T16:19:33;2.23;;;0.83;;
22571;SDS011;11452;53.368;14.658;2022-10-16T16:24:39;1.60;;;1.03;;
22571;SDS011;11452;53.368;14.658;2022-10-16T16:29:44;1.00;;;0.90;;
22571;SDS011;11452;53.368;14.658;2022-10-16T16:34:51;2.10;;;1.10;;
22571;SDS011;11452;53.368;14.658;2022-10-16T16:39:56;2.93;;;0.73;;
22571;SDS011;11452;53.368;14.658;2022-10-16T16:45:02;1.47;;;1.10;;
22571;SDS011;11452;53.368;14.658;2022-10-16T16:50:08;2.47;;;0.93;;
22571;SDS011;11452;53.368;14.658;2022-10-16T16:55:14;1.63;;;1.00;;
22571;SDS011;11452;53.368;14.658;2022-10-16T17:00:19;1.63;;;1.10;;
22571;SDS011;11452;53.368;14.658;2022-10-16T17:05:25;1.13;;;1.00;;
22571;SDS011;11452;53.368;14.658;2022-10-16T17:10:31;1.60;;;1.23;;
22571;SDS011;11452;53.368;14.658;2022-10-16T17:15:36;2.90;;;1.60;;
22571;SDS011;11452;53.368;14.658;2022-10-16T17:20:42;2.73;;;1.53;;
22571;SDS011;11452;53.368;14.658;2022-10-16T17:25:48;3.03;;;2.07;;
22571;SDS011;11452;53.368;14.658;2022-10-16T17:30:53;1.40;;;1.20;;
22571;SDS011;11452;53.368;14.658;2022-10-16T17:35:59;1.50;;;1.40;;
22571;SDS011;11452;53.368;14.658;2022-10-16T17:41:14;2.47;;;1.50;;
22571;SDS011;11452;53.368;14.658;2022-10-16T17:46:24;2.90;;;1.57;;
22571;SDS011;11452;53.368;14.658;2022-10-16T17:51:31;1.73;;;1.33;;
22571;SDS011;11452;53.368;14.658;2022-10-16T17:56:36;1.97;;;1.50;;
22571;SDS011;11452;53.368;14.658;2022-10-16T18:01:43;2.77;;;1.20;;
22571;SDS011;11452;53.368;14.658;2022-10-16T18:06:49;5.93;;;1.37;;
22571;SDS011;11452;53.368;14.658;2022-10-16T18:11:55;1.47;;;1.10;;
22571;SDS011;11452;53.368;14.658;2022-10-16T18:17:05;1.30;;;1.20;;
22571;SDS011;11452;53.368;14.658;2022-10-16T18:22:10;3.17;;;1.27;;
22571;SDS011;11452;53.368;14.658;2022-10-16T18:27:16;3.03;;;1.50;;
22571;SDS011;11452;53.368;14.658;2022-10-16T18:32:22;1.73;;;1.50;;
22571;SDS011;11452;53.368;14.658;2022-10-16T18:37:28;5.23;;;1.80;;
22571;SDS011;11452;53.368;14.658;2022-10-16T18:42:33;4.60;;;1.50;;
22571;SDS011;11452;53.368;14.658;2022-10-16T18:47:39;1.90;;;1.47;;
22571;SDS011;11452;53.368;14.658;2022-10-16T18:52:47;2.40;;;1.20;;
22571;SDS011;11452;53.368;14.658;2022-10-16T18:57:53;1.67;;;1.47;;
22571;SDS011;11452;53.368;14.658;2022-10-16T19:02:59;2.70;;;1.50;;
22571;SDS011;11452;53.368;14.658;2022-10-16T19:08:07;2.47;;;1.17;;
22571;SDS011;11452;53.368;14.658;2022-10-16T19:13:12;2.40;;;1.30;;
22571;SDS011;11452;53.368;14.658;2022-10-16T19:18:18;1.63;;;1.43;;
22571;SDS011;11452;53.368;14.658;2022-10-16T19:23:25;1.87;;;1.53;;
22571;SDS011;11452;53.368;14.658;2022-10-16T19:28:30;1.47;;;1.27;;
22571;SDS011;11452;53.368;14.658;2022-10-16T19:33:36;4.33;;;1.10;;
22571;SDS011;11452;53.368;14.658;2022-10-16T19:38:43;1.37;;;1.20;;
22571;SDS011;11452;53.368;14.658;2022-10-16T19:43:50;2.73;;;1.43;;
22571;SDS011;11452;53.368;14.658;2022-10-16T19:48:58;2.37;;;1.70;;
22571;SDS011;11452;53.368;14.658;2022-10-16T19:54:07;2.03;;;1.30;;
22571;SDS011;11452;53.368;14.658;2022-10-16T19:59:14;3.43;;;2.20;;
22571;SDS011;11452;53.368;14.658;2022-10-16T20:04:21;1.83;;;1.27;;
22571;SDS011;11452;53.368;14.658;2022-10-16T20:09:27;2.40;;;1.23;;
22571;SDS011;11452;53.368;14.658;2022-10-16T20:14:33;1.87;;;1.40;;
22571;SDS011;11452;53.368;14.658;2022-10-16T20:19:38;2.17;;;1.40;;
22571;SDS011;11452;53.368;14.658;2022-10-16T20:24:44;4.83;;;1.70;;
22571;SDS011;11452;53.368;14.658;2022-10-16T20:29:50;1.97;;;1.50;;
22571;SDS011;11452;53.368;14.658;2022-10-16T20:34:55;1.40;;;1.07;;
22571;SDS011;11452;53.368;14.658;2022-10-16T20:40:01;1.73;;;1.27;;
22571;SDS011;11452;53.368;14.658;2022-10-16T20:45:07;2.70;;;1.43;;
22571;SDS011;11452;53.368;14.658;2022-10-16T20:50:13;1.53;;;1.07;;
22571;SDS011;11452;53.368;14.658;2022-10-16T20:55:18;2.53;;;1.27;;
22571;SDS011;11452;53.368;14.658;2022-10-16T21:00:24;1.70;;;1.17;;
22571;SDS011;11452;53.368;14.658;2022-10-16T21:05:30;1.50;;;1.40;;
22571;SDS011;11452;53.368;14.658;2022-10-16T21:10:37;2.60;;;1.43;;
22571;SDS011;11452;53.368;14.658;2022-10-16T21:15:45;1.50;;;1.27;;
22571;SDS011;11452;53.368;14.658;2022-10-16T21:20:53;2.03;;;1.80;;
22571;SDS011;11452;53.368;14.658;2022-10-16T21:25:59;1.47;;;1.37;;
22571;SDS011;11452;53.368;14.658;2022-10-16T21:31:17;3.70;;;1.77;;
22571;SDS011;11452;53.368;14.658;2022-10-16T21:36:36;4.03;;;1.90;;
22571;SDS011;11452;53.368;14.658;2022-10-16T21:41:27;4.27;;;1.33;;
22571;SDS011;11452;53.368;14.658;2022-10-16T21:46:34;2.80;;;1.60;;
22571;SDS011;11452;53.368;14.658;2022-10-16T21:51:42;2.50;;;1.60;;
22571;SDS011;11452;53.368;14.658;2022-10-16T21:56:50;1.93;;;1.23;;
22571;SDS011;11452;53.368;14.658;2022-10-16T22:01:55;2.53;;;1.40;;
22571;SDS011;11452;53.368;14.658;2022-10-16T22:07:02;1.60;;;1.50;;
22571;SDS011;11452;53.368;14.658;2022-10-16T22:12:08;1.77;;;1.67;;
22571;SDS011;11452;53.368;14.658;2022-10-16T22:17:13;4.07;;;1.40;;
22571;SDS011;11452;53.368;14.658;2022-10-16T22:22:19;3.70;;;1.67;;
22571;SDS011;11452;53.368;14.658;2022-10-16T22:27:24;1.67;;;1.50;;
22571;SDS011;11452;53.368;14.658;2022-10-16T22:32:30;3.40;;;1.20;;
22571;SDS011;11452;53.368;14.658;2022-10-16T22:37:36;2.97;;;1.40;;
22571;SDS011;11452;53.368;14.658;2022-10-16T22:42:41;5.47;;;1.73;;
22571;SDS011;11452;53.368;14.658;2022-10-16T22:47:47;2.50;;;1.37;;
22571;SDS011;11452;53.368;14.658;2022-10-16T22:52:53;8.63;;;1.67;;
22571;SDS011;11452;53.368;14.658;2022-10-16T22:57:59;4.50;;;1.60;;
22571;SDS011;11452;53.368;14.658;2022-10-16T23:03:04;3.80;;;1.70;;
22571;SDS011;11452;53.368;14.658;2022-10-16T23:08:10;1.77;;;1.37;;
22571;SDS011;11452;53.368;14.658;2022-10-16T23:13:17;2.00;;;1.17;;
22571;SDS011;11452;53.368;14.658;2022-10-16T23:18:22;3.30;;;1.67;;
22571;SDS011;11452;53.368;14.658;2022-10-16T23:23:28;2.37;;;1.57;;
22571;SDS011;11452;53.368;14.658;2022-10-16T23:28:33;5.07;;;1.50;;
22571;SDS011;11452;53.368;14.658;2022-10-16T23:33:39;4.57;;;1.50;;
22571;SDS011;11452;53.368;14.658;2022-10-16T23:38:44;4.07;;;1.50;;
22571;SDS011;11452;53.368;14.658;2022-10-16T23:43:51;3.90;;;1.30;;
22571;SDS011;11452;53.368;14.658;2022-10-16T23:48:56;4.37;;;1.40;;
22571;SDS011;11452;53.368;14.658;2022-10-16T23:54:02;3.00;;;1.23;;
22571;SDS011;11452;53.368;14.658;2022-10-16T23:59:07;2.20;;;1.23;;
